createdAt,value
2019-02-08T00:00:06.302Z,86.33
2019-02-08T00:01:06.274Z,86.08
2019-02-08T00:02:06.283Z,86.02
2019-02-08T00:03:06.266Z,86.33
2019-02-08T00:04:06.254Z,86.74
2019-02-08T00:05:06.301Z,87.43
2019-02-08T00:06:06.216Z,86.95
2019-02-08T00:07:06.212Z,86.74
2019-02-08T00:08:06.189Z,86.85
2019-02-08T00:09:06.230Z,86.57
2019-02-08T00:10:06.179Z,87.51
2019-02-08T00:11:06.167Z,86.74
2019-02-08T00:12:06.170Z,86.99
2019-02-08T00:13:06.139Z,87.16
2019-02-08T00:14:06.157Z,86.74
2019-02-08T00:15:06.171Z,86.99
2019-02-08T00:16:06.149Z,86.16
2019-02-08T00:17:06.160Z,86.30
2019-02-08T00:18:06.127Z,87.09
2019-02-08T00:19:06.128Z,87.34
2019-02-08T00:20:06.107Z,87.40
2019-02-08T00:21:06.081Z,87.65
2019-02-08T00:22:06.052Z,87.40
2019-02-08T00:23:06.037Z,88.07
2019-02-08T00:24:06.026Z,87.82
2019-02-08T00:25:06.025Z,87.61
2019-02-08T00:26:06.020Z,87.92
2019-02-08T00:27:06.034Z,87.82
2019-02-08T00:28:05.984Z,88.07
2019-02-08T00:29:05.993Z,88.23
2019-02-08T00:30:06.016Z,88.54
2019-02-08T00:31:05.998Z,88.65
2019-02-08T00:32:06.011Z,88.75
2019-02-08T00:33:05.990Z,88.61
2019-02-08T00:34:05.923Z,87.78
2019-02-08T00:35:05.913Z,87.37
2019-02-08T00:36:05.922Z,87.26
2019-02-08T00:37:05.887Z,87.22
2019-02-08T00:38:05.892Z,87.53
2019-02-08T00:39:05.915Z,86.95
2019-02-08T00:40:05.858Z,87.22
2019-02-08T00:41:05.852Z,86.91
2019-02-08T00:42:05.846Z,86.70
2019-02-08T00:43:05.822Z,87.22
2019-02-08T00:44:05.810Z,86.80
2019-02-08T00:45:05.817Z,86.97
2019-02-08T00:46:05.792Z,86.76
2019-02-08T00:47:05.789Z,86.91
2019-02-08T00:48:05.786Z,86.35
2019-02-08T00:49:05.777Z,86.35
2019-02-08T00:50:05.746Z,86.35
2019-02-08T00:51:05.737Z,86.25
2019-02-08T00:52:05.747Z,86.25
2019-02-08T00:53:05.720Z,86.45
2019-02-08T00:54:05.704Z,86.55
2019-02-08T00:55:05.695Z,86.45
2019-02-08T00:56:05.702Z,86.87
2019-02-08T00:57:05.685Z,86.97
2019-02-08T00:58:05.664Z,86.35
2019-02-08T00:59:05.656Z,86.45
2019-02-08T01:00:05.646Z,86.35
2019-02-08T01:01:05.636Z,86.97
2019-02-08T01:02:05.643Z,86.45
2019-02-08T01:03:05.618Z,86.25
2019-02-08T01:04:05.621Z,86.87
2019-02-08T01:05:05.593Z,86.21
2019-02-08T01:06:05.576Z,85.79
2019-02-08T01:07:05.629Z,86.45
2019-02-08T01:08:05.577Z,86.21
2019-02-08T01:09:05.552Z,85.89
2019-02-08T01:10:05.538Z,86.10
2019-02-08T01:11:05.560Z,86.31
2019-02-08T01:12:05.526Z,86.21
2019-02-08T01:13:05.522Z,86.10
2019-02-08T01:14:05.523Z,85.86
2019-02-08T01:15:05.479Z,86.07
2019-02-08T01:16:05.486Z,86.17
2019-02-08T01:17:05.492Z,86.07
2019-02-08T01:18:05.450Z,86.27
2019-02-08T01:19:05.443Z,85.34
2019-02-08T01:20:05.432Z,85.13
2019-02-08T01:21:05.421Z,85.13
2019-02-08T01:22:05.425Z,85.86
2019-02-08T01:23:05.404Z,85.34
2019-02-08T01:24:05.390Z,85.55
2019-02-08T01:25:05.379Z,85.75
2019-02-08T01:26:05.385Z,85.40
2019-02-08T01:27:05.368Z,85.30
2019-02-08T01:28:05.338Z,85.09
2019-02-08T01:29:05.327Z,85.71
2019-02-08T01:30:05.340Z,85.19
2019-02-08T01:31:05.324Z,85.09
2019-02-08T01:32:05.311Z,85.09
2019-02-08T01:33:05.302Z,84.88
2019-02-08T01:34:05.300Z,85.05
2019-02-08T01:35:05.277Z,84.88
2019-02-08T01:36:05.274Z,85.05
2019-02-08T01:37:05.266Z,85.47
2019-02-08T01:38:05.229Z,84.12
2019-02-08T01:39:05.225Z,84.53
2019-02-08T01:40:05.260Z,84.12
2019-02-08T01:41:05.236Z,84.43
2019-02-08T01:42:05.191Z,84.53
2019-02-08T01:43:05.178Z,84.58
2019-02-08T01:44:05.173Z,84.27
2019-02-08T01:45:05.187Z,84.43
2019-02-08T01:46:05.176Z,84.22
2019-02-08T01:47:05.148Z,84.33
2019-02-08T01:48:05.118Z,84.27
2019-02-08T01:49:05.109Z,84.53
2019-02-08T01:50:05.128Z,84.27
2019-02-08T01:51:05.126Z,85.26
2019-02-08T01:52:05.096Z,84.58
2019-02-08T01:53:05.072Z,84.27
2019-02-08T01:54:05.070Z,84.58
2019-02-08T01:55:05.053Z,85.19
2019-02-08T01:56:05.046Z,84.99
2019-02-08T01:57:05.029Z,85.30
2019-02-08T01:58:05.060Z,84.88
2019-02-08T01:59:05.008Z,85.09
2019-02-08T02:00:05.004Z,85.30
2019-02-08T02:01:05.019Z,85.09
2019-02-08T02:02:04.996Z,85.09
2019-02-08T02:03:04.962Z,85.19
2019-02-08T02:04:04.960Z,84.99
2019-02-08T02:05:05.020Z,85.19
2019-02-08T02:06:04.972Z,85.09
2019-02-08T02:07:04.920Z,85.40
2019-02-08T02:08:04.927Z,85.30
2019-02-08T02:09:04.906Z,84.99
2019-02-08T02:10:04.919Z,84.78
2019-02-08T02:11:04.876Z,85.09
2019-02-08T02:12:04.867Z,84.99
2019-02-08T02:13:04.856Z,85.19
2019-02-08T02:14:04.853Z,85.19
2019-02-08T02:15:04.839Z,84.99
2019-02-08T02:16:04.824Z,84.78
2019-02-08T02:17:04.810Z,84.95
2019-02-08T02:18:04.796Z,84.88
2019-02-08T02:19:04.786Z,84.68
2019-02-08T02:20:04.777Z,85.05
2019-02-08T02:21:04.785Z,84.64
2019-02-08T02:22:04.746Z,84.95
2019-02-08T02:23:04.745Z,84.84
2019-02-08T02:24:04.749Z,84.95
2019-02-08T02:25:04.730Z,85.26
2019-02-08T02:26:04.716Z,84.43
2019-02-08T02:27:04.691Z,85.02
2019-02-08T02:28:04.678Z,85.32
2019-02-08T02:29:04.693Z,84.43
2019-02-08T02:30:04.681Z,84.60
2019-02-08T02:31:04.651Z,84.39
2019-02-08T02:32:04.648Z,85.16
2019-02-08T02:33:04.627Z,84.19
2019-02-08T02:34:04.617Z,84.08
2019-02-08T02:35:04.632Z,84.50
2019-02-08T02:36:04.605Z,83.98
2019-02-08T02:37:04.600Z,84.19
2019-02-08T02:38:04.616Z,83.67
2019-02-08T02:39:04.567Z,84.50
2019-02-08T02:40:04.630Z,84.15
2019-02-08T02:41:04.546Z,83.77
2019-02-08T02:42:04.539Z,83.56
2019-02-08T02:43:04.528Z,84.29
2019-02-08T02:44:04.517Z,84.29
2019-02-08T02:45:04.511Z,83.46
2019-02-08T02:46:04.514Z,84.15
2019-02-08T02:47:04.482Z,84.39
2019-02-08T02:48:04.483Z,84.19
2019-02-08T02:49:04.497Z,83.87
2019-02-08T02:50:04.472Z,84.29
2019-02-08T02:51:04.439Z,84.91
2019-02-08T02:52:04.429Z,84.60
2019-02-08T02:53:04.430Z,84.45
2019-02-08T02:54:05.125Z,84.66
2019-02-08T02:55:04.428Z,84.77
2019-02-08T02:56:04.411Z,83.94
2019-02-08T02:57:04.375Z,83.84
2019-02-08T02:58:04.381Z,84.45
2019-02-08T02:59:04.370Z,84.36
2019-02-08T03:00:04.353Z,84.56
2019-02-08T03:01:04.344Z,84.05
2019-02-08T03:02:04.362Z,84.77
2019-02-08T03:03:04.316Z,84.66
2019-02-08T03:04:04.305Z,84.05
2019-02-08T03:05:04.311Z,84.15
2019-02-08T03:06:04.279Z,84.77
2019-02-08T03:07:04.276Z,84.05
2019-02-08T03:08:04.270Z,84.05
2019-02-08T03:09:04.259Z,84.15
2019-02-08T03:10:04.235Z,84.15
2019-02-08T03:11:04.265Z,84.36
2019-02-08T03:12:04.206Z,84.77
2019-02-08T03:13:04.229Z,84.77
2019-02-08T03:14:04.244Z,83.84
2019-02-08T03:15:04.183Z,84.25
2019-02-08T03:16:04.220Z,84.15
2019-02-08T03:17:04.160Z,84.36
2019-02-08T03:18:04.149Z,84.05
2019-02-08T03:19:04.176Z,84.77
2019-02-08T03:20:04.144Z,84.36
2019-02-08T03:21:04.141Z,84.05
2019-02-08T03:22:04.107Z,84.45
2019-02-08T03:23:04.112Z,84.45
2019-02-08T03:24:04.091Z,85.08
2019-02-08T03:25:04.069Z,84.56
2019-02-08T03:26:04.059Z,84.56
2019-02-08T03:27:04.068Z,84.45
2019-02-08T03:28:04.077Z,85.28
2019-02-08T03:29:04.123Z,85.18
2019-02-08T03:30:04.053Z,84.36
2019-02-08T03:31:04.082Z,84.97
2019-02-08T03:32:04.005Z,84.97
2019-02-08T03:33:04.009Z,85.28
2019-02-08T03:34:04.026Z,84.66
2019-02-08T03:35:03.963Z,84.97
2019-02-08T03:36:03.947Z,84.87
2019-02-08T03:37:03.961Z,84.91
2019-02-08T03:38:03.935Z,84.91
2019-02-08T03:39:03.967Z,85.02
2019-02-08T03:40:03.922Z,85.11
2019-02-08T03:41:03.931Z,85.11
2019-02-08T03:42:03.893Z,85.42
2019-02-08T03:43:03.879Z,85.02
2019-02-08T03:44:03.877Z,85.32
2019-02-08T03:45:03.866Z,85.74
2019-02-08T03:46:03.848Z,85.42
2019-02-08T03:47:03.897Z,86.19
2019-02-08T03:48:03.849Z,85.74
2019-02-08T03:49:03.867Z,85.74
2019-02-08T03:50:03.804Z,86.09
2019-02-08T03:51:03.814Z,86.05
2019-02-08T03:52:03.818Z,85.94
2019-02-08T03:53:03.782Z,86.05
2019-02-08T03:54:03.772Z,86.05
2019-02-08T03:55:03.748Z,86.25
2019-02-08T03:56:03.737Z,85.42
2019-02-08T03:57:03.723Z,86.15
2019-02-08T03:58:03.730Z,85.74
2019-02-08T03:59:03.727Z,86.15
2019-02-08T04:00:03.700Z,85.32
2019-02-08T04:01:03.694Z,85.84
2019-02-08T04:02:03.745Z,85.94
2019-02-08T04:03:03.670Z,86.05
2019-02-08T04:04:03.661Z,85.94
2019-02-08T04:05:03.645Z,86.05
2019-02-08T04:06:03.633Z,86.11
2019-02-08T04:07:03.630Z,85.94
2019-02-08T04:08:03.633Z,85.63
2019-02-08T04:09:03.602Z,86.01
2019-02-08T04:10:03.603Z,85.70
2019-02-08T04:11:03.577Z,85.70
2019-02-08T04:12:03.573Z,84.97
2019-02-08T04:13:03.569Z,85.60
2019-02-08T04:14:03.560Z,85.08
2019-02-08T04:15:03.533Z,85.18
2019-02-08T04:16:03.604Z,85.49
2019-02-08T04:17:03.509Z,85.80
2019-02-08T04:18:03.528Z,86.11
2019-02-08T04:19:03.509Z,84.97
2019-02-08T04:20:03.517Z,85.39
2019-02-08T04:21:03.466Z,84.97
2019-02-08T04:22:03.460Z,85.28
2019-02-08T04:23:03.470Z,85.04
2019-02-08T04:24:03.457Z,84.97
2019-02-08T04:25:03.439Z,85.04
2019-02-08T04:26:03.422Z,85.45
2019-02-08T04:27:03.417Z,85.45
2019-02-08T04:28:03.457Z,84.94
2019-02-08T04:29:03.436Z,85.66
2019-02-08T04:30:03.372Z,84.94
2019-02-08T04:31:03.379Z,84.94
2019-02-08T04:32:03.362Z,84.83
2019-02-08T04:33:03.352Z,84.63
2019-02-08T04:34:03.371Z,84.83
2019-02-08T04:35:03.319Z,84.73
2019-02-08T04:36:03.314Z,85.04
2019-02-08T04:37:03.316Z,84.94
2019-02-08T04:38:03.294Z,84.52
2019-02-08T04:39:03.279Z,84.94
2019-02-08T04:40:03.306Z,85.04
2019-02-08T04:41:03.305Z,84.83
2019-02-08T04:42:03.255Z,84.52
2019-02-08T04:43:03.239Z,84.52
2019-02-08T04:44:03.230Z,84.69
2019-02-08T04:45:03.236Z,84.69
2019-02-08T04:46:03.215Z,84.79
2019-02-08T04:47:03.197Z,84.79
2019-02-08T04:48:03.179Z,85.10
2019-02-08T04:49:03.169Z,84.79
2019-02-08T04:50:03.160Z,85.21
2019-02-08T04:51:03.168Z,84.59
2019-02-08T04:52:03.161Z,84.69
2019-02-08T04:53:03.125Z,84.59
2019-02-08T04:54:03.122Z,84.59
2019-02-08T04:55:03.132Z,84.69
2019-02-08T04:56:03.099Z,84.89
2019-02-08T04:57:03.084Z,85.31
2019-02-08T04:58:03.085Z,85.00
2019-02-08T04:59:03.074Z,85.10
2019-02-08T05:00:03.055Z,85.10
2019-02-08T05:01:03.062Z,84.89
2019-02-08T05:02:03.039Z,84.69
2019-02-08T05:03:03.065Z,84.89
2019-02-08T05:04:03.012Z,84.89
2019-02-08T05:05:03.055Z,84.79
2019-02-08T05:06:03.019Z,85.00
2019-02-08T05:07:02.973Z,85.00
2019-02-08T05:08:02.986Z,84.73
2019-02-08T05:09:02.956Z,84.69
2019-02-08T05:10:02.947Z,84.89
2019-02-08T05:11:02.959Z,85.00
2019-02-08T05:12:02.952Z,85.00
2019-02-08T05:13:02.914Z,85.00
2019-02-08T05:14:02.893Z,84.69
2019-02-08T05:15:02.905Z,85.00
2019-02-08T05:16:02.936Z,85.00
2019-02-08T05:17:02.888Z,84.79
2019-02-08T05:18:02.861Z,85.10
2019-02-08T05:19:02.856Z,85.31
2019-02-08T05:20:02.858Z,84.69
2019-02-08T05:21:02.847Z,84.79
2019-02-08T05:22:02.826Z,85.10
2019-02-08T05:23:02.829Z,84.89
2019-02-08T05:24:02.793Z,84.38
2019-02-08T05:25:02.785Z,83.86
2019-02-08T05:26:02.785Z,84.48
2019-02-08T05:27:02.765Z,84.38
2019-02-08T05:28:02.791Z,84.28
2019-02-08T05:29:02.745Z,84.38
2019-02-08T05:30:02.733Z,83.97
2019-02-08T05:31:02.738Z,85.21
2019-02-08T05:32:02.753Z,84.89
2019-02-08T05:33:02.693Z,85.10
2019-02-08T05:34:02.679Z,85.10
2019-02-08T05:35:02.676Z,85.00
2019-02-08T05:36:02.694Z,84.79
2019-02-08T05:37:02.658Z,84.79
2019-02-08T05:38:02.642Z,85.00
2019-02-08T05:39:02.630Z,84.59
2019-02-08T05:40:02.620Z,85.10
2019-02-08T05:41:02.629Z,85.10
2019-02-08T05:42:02.601Z,84.59
2019-02-08T05:43:02.613Z,84.73
2019-02-08T05:44:02.572Z,84.52
2019-02-08T05:45:02.563Z,84.73
2019-02-08T05:46:02.557Z,85.00
2019-02-08T05:47:02.567Z,84.69
2019-02-08T05:48:02.546Z,84.59
2019-02-08T05:49:02.521Z,85.10
2019-02-08T05:50:02.514Z,84.38
2019-02-08T05:51:02.494Z,84.07
2019-02-08T05:52:02.484Z,83.97
2019-02-08T05:53:02.481Z,84.07
2019-02-08T05:54:02.489Z,84.38
2019-02-08T05:55:02.459Z,84.28
2019-02-08T05:56:02.458Z,84.28
2019-02-08T05:57:02.431Z,84.38
2019-02-08T05:58:02.436Z,84.17
2019-02-08T05:59:02.466Z,84.07
2019-02-08T06:00:02.408Z,84.59
2019-02-08T06:01:02.396Z,84.59
2019-02-08T06:02:02.408Z,85.10
2019-02-08T06:03:02.418Z,84.79
2019-02-08T06:04:02.366Z,83.76
2019-02-08T06:05:02.357Z,83.97
2019-02-08T06:06:02.362Z,83.76
2019-02-08T06:07:02.330Z,84.34
2019-02-08T06:08:02.317Z,83.72
2019-02-08T06:09:02.327Z,83.65
2019-02-08T06:10:02.315Z,83.62
2019-02-08T06:11:02.293Z,83.62
2019-02-08T06:12:02.275Z,83.76
2019-02-08T06:13:02.263Z,84.03
2019-02-08T06:14:02.315Z,83.25
2019-02-08T06:15:02.239Z,83.55
2019-02-08T06:16:02.233Z,84.44
2019-02-08T06:17:02.221Z,83.62
2019-02-08T06:18:02.207Z,83.45
2019-02-08T06:19:02.209Z,83.72
2019-02-08T06:20:02.190Z,83.20
2019-02-08T06:21:02.180Z,83.55
2019-02-08T06:22:02.226Z,83.51
2019-02-08T06:23:02.155Z,83.93
2019-02-08T06:24:02.156Z,83.62
2019-02-08T06:25:04.251Z,83.93
2019-02-08T06:26:02.119Z,83.41
2019-02-08T06:27:02.126Z,83.72
2019-02-08T06:28:02.106Z,83.41
2019-02-08T06:29:02.113Z,83.41
2019-02-08T06:30:02.083Z,83.31
2019-02-08T06:31:02.073Z,82.89
2019-02-08T06:32:02.057Z,83.00
2019-02-08T06:33:02.058Z,82.89
2019-02-08T06:34:02.037Z,83.31
2019-02-08T06:35:02.058Z,82.69
2019-02-08T06:36:02.011Z,82.89
2019-02-08T06:37:02.002Z,82.79
2019-02-08T06:38:01.990Z,82.38
2019-02-08T06:39:01.984Z,82.59
2019-02-08T06:40:02.005Z,82.17
2019-02-08T06:41:01.962Z,82.59
2019-02-08T06:42:01.952Z,82.48
2019-02-08T06:43:01.945Z,82.03
2019-02-08T06:44:01.950Z,81.93
2019-02-08T06:45:01.937Z,82.24
2019-02-08T06:46:01.911Z,82.45
2019-02-08T06:47:01.890Z,82.03
2019-02-08T06:48:01.879Z,82.34
2019-02-08T06:49:01.868Z,82.24
2019-02-08T06:50:01.866Z,82.24
2019-02-08T06:51:01.875Z,82.45
2019-02-08T06:52:01.854Z,82.24
2019-02-08T06:53:01.828Z,82.24
2019-02-08T06:54:01.827Z,82.24
2019-02-08T06:55:01.811Z,81.93
2019-02-08T06:56:01.791Z,82.24
2019-02-08T06:57:01.782Z,81.82
2019-02-08T06:58:01.778Z,82.14
2019-02-08T06:59:01.771Z,82.14
2019-02-08T07:00:01.769Z,81.82
2019-02-08T07:01:01.742Z,82.14
2019-02-08T07:02:01.735Z,82.03
2019-02-08T07:03:01.725Z,82.24
2019-02-08T07:04:01.706Z,82.34
2019-02-08T07:05:01.703Z,82.24
2019-02-08T07:06:01.722Z,82.10
2019-02-08T07:07:01.668Z,82.34
2019-02-08T07:08:01.666Z,82.34
2019-02-08T07:09:01.656Z,82.30
2019-02-08T07:10:01.637Z,82.30
2019-02-08T07:11:01.645Z,82.40
2019-02-08T07:12:01.638Z,82.51
2019-02-08T07:13:01.611Z,82.10
2019-02-08T07:14:01.599Z,81.82
2019-02-08T07:15:01.587Z,81.79
2019-02-08T07:16:01.577Z,82.20
2019-02-08T07:17:01.568Z,82.20
2019-02-08T07:18:01.578Z,82.03
2019-02-08T07:19:01.547Z,81.93
2019-02-08T07:20:01.534Z,81.93
2019-02-08T07:21:01.535Z,82.45
2019-02-08T07:22:01.605Z,82.30
2019-02-08T07:23:01.518Z,81.79
2019-02-08T07:24:01.505Z,82.10
2019-02-08T07:25:01.485Z,81.99
2019-02-08T07:26:01.473Z,82.40
2019-02-08T07:27:01.471Z,82.51
2019-02-08T07:28:01.445Z,81.99
2019-02-08T07:29:01.462Z,81.79
2019-02-08T07:30:01.429Z,82.10
2019-02-08T07:31:01.427Z,82.10
2019-02-08T07:32:01.412Z,82.20
2019-02-08T07:33:01.402Z,82.30
2019-02-08T07:34:01.378Z,82.30
2019-02-08T07:35:01.422Z,82.10
2019-02-08T07:36:01.388Z,82.30
2019-02-08T07:37:01.350Z,81.79
2019-02-08T07:38:01.352Z,81.58
2019-02-08T07:39:01.345Z,81.79
2019-02-08T07:40:01.331Z,82.30
2019-02-08T07:41:01.304Z,81.89
2019-02-08T07:42:01.296Z,81.79
2019-02-08T07:43:01.297Z,81.89
2019-02-08T07:44:01.313Z,81.89
2019-02-08T07:45:01.317Z,81.99
2019-02-08T07:46:01.265Z,81.89
2019-02-08T07:47:01.240Z,82.30
2019-02-08T07:48:01.252Z,81.99
2019-02-08T07:49:01.256Z,81.68
2019-02-08T07:50:01.233Z,81.75
2019-02-08T07:51:01.190Z,82.20
2019-02-08T07:52:01.237Z,81.96
2019-02-08T07:53:01.218Z,81.65
2019-02-08T07:54:01.193Z,82.16
2019-02-08T07:55:01.610Z,81.75
2019-02-08T07:56:01.151Z,81.75
2019-02-08T07:57:01.138Z,81.85
2019-02-08T07:58:01.124Z,81.85
2019-02-08T07:59:01.111Z,81.54
2019-02-08T08:00:01.120Z,81.44
2019-02-08T08:01:01.085Z,81.44
2019-02-08T08:02:01.107Z,81.44
2019-02-08T08:03:01.079Z,81.54
2019-02-08T08:04:01.733Z,81.75
2019-02-08T08:05:01.044Z,81.03
2019-02-08T08:06:01.068Z,81.03
2019-02-08T08:07:01.028Z,81.44
2019-02-08T08:08:01.020Z,81.40
2019-02-08T08:09:01.003Z,81.51
2019-02-08T08:10:01.070Z,81.30
2019-02-08T08:11:00.987Z,80.93
2019-02-08T08:12:00.967Z,80.58
2019-02-08T08:13:00.972Z,81.40
2019-02-08T08:14:00.958Z,80.47
2019-02-08T08:15:00.988Z,80.99
2019-02-08T08:16:00.931Z,80.68
2019-02-08T08:17:01.003Z,81.61
2019-02-08T08:18:00.956Z,81.40
2019-02-08T08:19:00.886Z,81.30
2019-02-08T08:20:00.913Z,81.71
2019-02-08T08:21:00.888Z,81.30
2019-02-08T08:22:00.885Z,81.51
2019-02-08T08:23:00.877Z,81.81
2019-02-08T08:24:00.861Z,81.71
2019-02-08T08:25:00.858Z,81.71
2019-02-08T08:26:00.809Z,81.40
2019-02-08T08:27:00.826Z,81.51
2019-02-08T08:28:00.870Z,81.81
2019-02-08T08:29:00.810Z,81.81
2019-02-08T08:30:00.808Z,81.92
2019-02-08T08:31:00.763Z,82.02
2019-02-08T08:32:00.762Z,81.51
2019-02-08T08:33:00.743Z,82.02
2019-02-08T08:34:00.734Z,81.51
2019-02-08T08:35:00.723Z,81.40
2019-02-08T08:36:00.752Z,81.47
2019-02-08T08:37:00.708Z,81.57
2019-02-08T08:38:00.688Z,81.37
2019-02-08T08:39:00.701Z,81.30
2019-02-08T08:40:00.663Z,80.95
2019-02-08T08:41:00.662Z,81.61
2019-02-08T08:42:00.669Z,81.26
2019-02-08T08:43:00.626Z,81.67
2019-02-08T08:44:00.665Z,81.05
2019-02-08T08:45:00.605Z,80.68
2019-02-08T08:46:00.597Z,81.16
2019-02-08T08:47:00.598Z,81.77
2019-02-08T08:48:00.582Z,81.05
2019-02-08T08:49:00.575Z,81.37
2019-02-08T08:50:00.646Z,81.47
2019-02-08T08:51:00.541Z,81.37
2019-02-08T08:52:00.575Z,81.88
2019-02-08T08:53:00.536Z,81.26
2019-02-08T08:54:00.536Z,80.44
2019-02-08T08:55:00.503Z,81.05
2019-02-08T08:56:00.490Z,81.16
2019-02-08T08:57:00.515Z,81.37
2019-02-08T08:58:00.487Z,81.37
2019-02-08T08:59:00.490Z,80.85
2019-02-08T09:00:00.544Z,80.54
2019-02-08T09:01:00.440Z,80.65
2019-02-08T09:02:00.428Z,81.57
2019-02-08T09:03:00.443Z,80.71
2019-02-08T09:04:00.413Z,80.81
2019-02-08T09:05:00.404Z,80.91
2019-02-08T09:06:08.060Z,80.61
2019-02-08T09:07:01.370Z,80.71
2019-02-08T09:08:00.383Z,81.16
2019-02-08T09:09:00.344Z,80.71
2019-02-08T09:10:00.369Z,80.75
2019-02-08T09:11:00.346Z,81.02
2019-02-08T09:12:00.320Z,81.12
2019-02-08T09:13:00.333Z,80.91
2019-02-08T09:14:00.295Z,81.12
2019-02-08T09:15:00.281Z,80.51
2019-02-08T09:16:00.274Z,81.12
2019-02-08T09:17:00.256Z,80.81
2019-02-08T09:18:00.248Z,80.91
2019-02-08T09:19:00.252Z,80.71
2019-02-08T09:20:00.331Z,81.12
2019-02-08T09:21:00.237Z,81.02
2019-02-08T09:22:00.214Z,80.81
2019-02-08T09:23:00.194Z,80.91
2019-02-08T09:24:00.184Z,81.19
2019-02-08T09:25:00.295Z,80.91
2019-02-08T09:26:00.192Z,80.77
2019-02-08T09:27:00.176Z,80.57
2019-02-08T09:28:00.186Z,80.88
2019-02-08T09:29:00.134Z,80.98
2019-02-08T09:30:00.206Z,80.98
2019-02-08T09:31:00.110Z,80.77
2019-02-08T09:32:00.119Z,80.77
2019-02-08T09:33:00.095Z,80.57
2019-02-08T09:34:00.078Z,80.77
2019-02-08T09:35:00.147Z,80.88
2019-02-08T09:36:00.058Z,80.63
2019-02-08T09:37:00.053Z,80.43
2019-02-08T09:38:00.031Z,80.36
2019-02-08T09:39:00.026Z,80.63
2019-02-08T09:40:00.016Z,80.12
2019-02-08T09:41:00.001Z,80.47
2019-02-08T09:42:00.005Z,80.12
2019-02-08T09:42:59.987Z,80.63
2019-02-08T09:43:59.988Z,79.40
2019-02-08T09:44:59.981Z,79.61
2019-02-08T09:45:59.966Z,79.54
2019-02-08T09:46:59.942Z,80.53
2019-02-08T09:47:59.933Z,80.33
2019-02-08T09:48:59.911Z,80.12
2019-02-08T09:49:59.922Z,80.22
2019-02-08T09:50:59.898Z,79.40
2019-02-08T09:51:59.890Z,79.61
2019-02-08T09:52:59.882Z,79.91
2019-02-08T09:53:59.861Z,79.91
2019-02-08T09:54:59.860Z,79.05
2019-02-08T09:56:00.031Z,79.30
2019-02-08T09:56:59.838Z,79.50
2019-02-08T09:57:59.900Z,79.81
2019-02-08T09:58:59.812Z,80.22
2019-02-08T09:59:59.798Z,79.50
2019-02-08T10:00:59.782Z,79.47
2019-02-08T10:01:59.790Z,78.96
2019-02-08T10:02:59.764Z,79.05
2019-02-08T10:03:59.767Z,79.36
2019-02-08T10:04:59.760Z,78.85
2019-02-08T10:05:59.754Z,79.05
2019-02-08T10:06:59.718Z,78.75
2019-02-08T10:07:59.709Z,79.16
2019-02-08T10:08:59.723Z,79.36
2019-02-08T10:09:59.688Z,78.96
2019-02-08T10:10:59.690Z,78.85
2019-02-08T10:11:59.683Z,79.16
2019-02-08T10:12:59.651Z,79.26
2019-02-08T10:13:59.646Z,78.96
2019-02-08T10:14:59.657Z,78.75
2019-02-08T10:15:59.648Z,78.85
2019-02-08T10:16:59.616Z,79.05
2019-02-08T10:17:59.602Z,78.64
2019-02-08T10:18:59.593Z,78.64
2019-02-08T10:19:59.605Z,79.05
2019-02-08T10:20:59.564Z,79.16
2019-02-08T10:21:59.562Z,78.75
2019-02-08T10:22:59.556Z,78.75
2019-02-08T10:23:59.555Z,78.75
2019-02-08T10:24:59.544Z,78.96
2019-02-08T10:26:05.199Z,78.85
2019-02-08T10:27:00.514Z,79.05
2019-02-08T10:27:59.496Z,79.05
2019-02-08T10:28:59.487Z,79.02
2019-02-08T10:29:59.482Z,78.61
2019-02-08T10:30:59.486Z,77.89
2019-02-08T10:31:59.445Z,77.99
2019-02-08T10:32:59.435Z,77.99
2019-02-08T10:33:59.454Z,78.61
2019-02-08T10:34:59.427Z,78.09
2019-02-08T10:35:59.410Z,78.20
2019-02-08T10:36:59.421Z,77.99
2019-02-08T10:37:59.384Z,77.23
2019-02-08T10:38:59.394Z,77.44
2019-02-08T10:39:59.356Z,77.23
2019-02-08T10:40:59.350Z,78.16
2019-02-08T10:41:59.338Z,78.27
2019-02-08T10:42:59.349Z,76.68
2019-02-08T10:43:59.360Z,76.42
2019-02-08T10:44:59.336Z,76.68
2019-02-08T10:45:59.301Z,76.58
2019-02-08T10:46:59.307Z,76.28
2019-02-08T10:47:59.282Z,76.07
2019-02-08T10:48:59.274Z,75.83
2019-02-08T10:49:59.267Z,76.55
2019-02-08T10:50:59.251Z,75.93
2019-02-08T10:51:59.226Z,75.32
2019-02-08T10:52:59.261Z,74.60
2019-02-08T10:53:59.209Z,75.21
2019-02-08T10:54:59.240Z,74.80
2019-02-08T10:55:59.195Z,74.91
2019-02-08T10:56:59.192Z,74.60
2019-02-08T10:57:59.185Z,74.49
2019-02-08T10:58:59.157Z,74.46
2019-02-08T10:59:59.143Z,74.98
2019-02-08T11:00:59.165Z,74.60
2019-02-08T11:01:59.137Z,75.11
2019-02-08T11:02:59.131Z,74.29
2019-02-08T11:03:59.097Z,74.08
2019-02-08T11:04:59.089Z,73.98
2019-02-08T11:05:59.080Z,74.36
2019-02-08T11:06:59.077Z,74.70
2019-02-08T11:07:59.102Z,74.91
2019-02-08T11:08:59.083Z,74.46
2019-02-08T11:09:59.040Z,74.87
2019-02-08T11:10:59.028Z,74.05
2019-02-08T11:11:59.012Z,73.81
2019-02-08T11:12:59.000Z,73.85
2019-02-08T11:13:59.006Z,74.77
2019-02-08T11:14:58.999Z,74.02
2019-02-08T11:15:58.982Z,74.46
2019-02-08T11:16:58.971Z,74.87
2019-02-08T11:17:58.954Z,74.15
2019-02-08T11:18:58.952Z,74.36
2019-02-08T11:19:58.931Z,74.57
2019-02-08T11:20:58.922Z,74.02
2019-02-08T11:21:58.906Z,74.36
2019-02-08T11:22:58.892Z,74.05
2019-02-08T11:23:58.896Z,73.74
2019-02-08T11:24:58.879Z,74.94
2019-02-08T11:25:58.864Z,75.15
2019-02-08T11:26:58.850Z,73.81
2019-02-08T11:27:58.842Z,74.32
2019-02-08T11:28:58.834Z,73.88
2019-02-08T11:29:58.846Z,74.02
2019-02-08T11:30:58.804Z,73.61
2019-02-08T11:31:58.795Z,73.40
2019-02-08T11:32:58.791Z,74.08
2019-02-08T11:33:58.783Z,73.78
2019-02-08T11:34:58.780Z,73.36
2019-02-08T11:35:58.753Z,72.89
2019-02-08T11:36:58.736Z,73.16
2019-02-08T11:37:58.732Z,73.27
2019-02-08T11:38:58.745Z,73.30
2019-02-08T11:39:58.723Z,73.10
2019-02-08T11:40:58.705Z,73.19
2019-02-08T11:41:58.704Z,73.61
2019-02-08T11:42:58.672Z,73.61
2019-02-08T11:43:58.658Z,73.40
2019-02-08T11:44:58.646Z,73.30
2019-02-08T11:45:58.643Z,73.10
2019-02-08T11:46:58.647Z,74.63
2019-02-08T11:47:58.629Z,73.50
2019-02-08T11:48:58.604Z,73.30
2019-02-08T11:49:58.594Z,73.50
2019-02-08T11:50:58.599Z,73.91
2019-02-08T11:51:58.578Z,73.40
2019-02-08T11:52:58.567Z,74.43
2019-02-08T11:53:58.553Z,73.85
2019-02-08T11:54:58.541Z,73.95
2019-02-08T11:55:58.541Z,74.05
2019-02-08T11:56:58.519Z,74.46
2019-02-08T11:57:58.520Z,73.81
2019-02-08T11:58:58.501Z,73.81
2019-02-08T11:59:58.492Z,73.61
2019-02-08T12:00:58.480Z,73.85
2019-02-08T12:01:58.489Z,74.15
2019-02-08T12:02:58.476Z,74.22
2019-02-08T12:03:58.464Z,73.95
2019-02-08T12:04:58.444Z,74.73
2019-02-08T12:05:58.424Z,74.53
2019-02-08T12:06:58.411Z,74.02
2019-02-08T12:07:58.395Z,74.32
2019-02-08T12:08:58.397Z,74.22
2019-02-08T12:09:58.385Z,75.04
2019-02-08T12:10:58.376Z,73.91
2019-02-08T12:11:58.360Z,73.71
2019-02-08T12:12:58.348Z,73.61
2019-02-08T12:13:58.351Z,74.15
2019-02-08T12:14:58.325Z,74.98
2019-02-08T12:15:58.361Z,74.36
2019-02-08T12:16:58.310Z,74.94
2019-02-08T12:17:58.291Z,74.57
2019-02-08T12:18:58.304Z,73.74
2019-02-08T12:19:58.291Z,74.57
2019-02-08T12:20:58.268Z,74.57
2019-02-08T12:21:58.248Z,74.66
2019-02-08T12:22:58.251Z,75.38
2019-02-08T12:23:58.234Z,75.79
2019-02-08T12:24:58.226Z,74.57
2019-02-08T12:25:58.205Z,74.80
2019-02-08T12:26:58.201Z,76.07
2019-02-08T12:27:58.180Z,75.73
2019-02-08T12:28:58.164Z,75.83
2019-02-08T12:29:58.172Z,76.55
2019-02-08T12:30:58.147Z,76.65
2019-02-08T12:31:58.142Z,76.17
2019-02-08T12:32:58.155Z,76.58
2019-02-08T12:33:58.116Z,76.28
2019-02-08T12:34:58.158Z,77.30
2019-02-08T12:35:58.091Z,77.30
2019-02-08T12:36:58.093Z,78.23
2019-02-08T12:37:58.086Z,78.12
2019-02-08T12:38:58.061Z,77.23
2019-02-08T12:39:58.045Z,78.06
2019-02-08T12:40:58.048Z,77.95
2019-02-08T12:41:58.025Z,78.27
2019-02-08T12:42:58.018Z,78.67
2019-02-08T12:43:58.066Z,78.67
2019-02-08T12:44:58.012Z,78.67
2019-02-08T12:45:58.024Z,78.47
2019-02-08T12:46:57.976Z,77.95
2019-02-08T12:47:57.957Z,78.67
2019-02-08T12:48:57.956Z,78.78
2019-02-08T12:49:57.957Z,78.81
2019-02-08T12:50:57.930Z,79.53
2019-02-08T12:51:57.924Z,79.94